Latest Weather Observations for Eucla

IDW60801

Issued at 10:23 pm WST Saturday 23 January 2021 (issued every 10 minutes, with the page automatically refreshed every 10 minutes)

About weather observations | Map of weather stations | Latest weather observations for WA | Other Formats
Station Details ID: 011003 Name: EUCLA Lat: -31.68 Lon: 128.90 Height: 93.1 m
Data from the previous 72 hours. | See also: Recent months at Eucla
Date/Time
WST
Temp
°C
App
Temp
°C
Dew
Point
°C
Rel
Hum
%
Delta-T
°C
Wind Press
QNH
hPa
Press
MSL
hPa
Rain since
9am
mm
Dir  Spd
km/h
Gust
km/h
Spd
kts
Gust
kts
23/10:00pm 23.9 24.8 18.3 71 3.5 NE 11 15 6 8 1006.8 1006.5 5.6
23/09:30pm 24.3 25.1 18.2 68 3.9 NE 11 15 6 8 1006.9 1006.6 5.6
23/09:00pm 23.5 23.7 18.6 74 3.1 ENE 15 19 8 10 1007.1 1006.8 5.6
23/08:30pm 23.3 24.1 19.0 77 2.7 ENE 13 17 7 9 1007.6 1007.3 5.6
23/08:00pm 24.4 25.0 18.6 70 3.7 NE 13 19 7 10 1008.3 1007.9 5.6
23/07:30pm 23.7 24.9 19.0 75 3.0 NE 11 15 6 8 1007.9 1007.5 5.6
23/07:00pm 24.0 25.4 18.6 72 3.4 NE 9 13 5 7 1007.3 1007.0 5.6
23/06:30pm 24.2 26.3 19.3 74 3.1 ENE 7 9 4 5 1007.1 1006.8 5.6
23/06:00pm 24.4 25.7 19.2 73 3.3 ENE 11 15 6 8 1006.9 1006.6 5.6
23/05:30pm 24.6 25.2 19.4 73 3.3 ENE 15 22 8 12 1006.7 1006.4 5.6
23/05:00pm 25.3 26.7 20.3 74 3.3 ENE 13 19 7 10 1006.6 1006.3 5.6
23/04:30pm 25.2 28.1 21.1 78 2.7 SE 7 9 4 5 1006.1 1005.8 5.4
23/04:00pm 25.7 27.9 19.6 69 4.0 S 7 9 4 5 1006.1 1005.8 5.0
23/03:30pm 25.6 24.5 19.5 69 3.9 W 24 35 13 19 1005.3 1005.0 5.0
23/03:00pm 26.4 26.8 19.8 67 4.3 W 17 32 9 17 1005.4 1005.1 5.0
23/02:30pm 24.5 25.0 19.3 73 3.3 WNW 15 22 8 12 1005.3 1005.0 5.0
23/02:00pm 26.6 26.5 18.7 62 5.1 WNW 17 33 9 18 1004.8 1004.5 1.6
23/01:50pm 29.6 31.7 20.2 57 6.2 WSW 9 15 5 8 1004.9 1004.6 1.4
23/01:30pm 34.6 33.0 12.9 27 13.1 SSE 13 17 7 9 1003.8 1003.5 0.0
23/01:00pm 35.1 33.7 13.3 27 13.3 SSE 13 17 7 9 1004.1 1003.8 0.0
23/12:30pm 34.8 33.3 13.0 26 13.2 SSE 13 19 7 10 1004.2 1003.9 0.0
23/12:00pm 36.1 35.3 13.0 25 14.1 S 9 15 5 8 1004.3 1004.0 0.0
23/11:30am 35.4 34.3 13.0 26 13.6 S 11 19 6 10 1004.4 1004.1 0.0
23/11:00am 35.0 34.3 13.2 27 13.3 S 9 15 5 8 1004.6 1004.3 0.0
23/10:30am 34.0 33.0 13.5 29 12.5 SSE 11 15 6 8 1004.9 1004.6 0.0
23/10:00am 34.2 33.4 14.1 29 12.4 S 11 15 6 8 1005.0 1004.7 0.0
23/09:30am 33.9 33.4 14.9 32 11.8 S 11 17 6 9 1004.8 1004.5 0.0
23/09:00am 34.5 33.4 15.4 32 12.0 SSW 15 22 8 12 1004.7 1004.4 0.0
23/08:30am 33.2 32.3 14.8 33 11.4 WSW 13 19 7 10 1005.1 1004.8 0.0
23/08:00am 28.8 28.6 15.7 45 8.1 SW 11 15 6 8 1004.9 1004.6 0.0
23/07:30am 25.6 25.6 16.2 56 5.8 SSW 11 13 6 7 1004.6 1004.3 0.0
23/07:00am 24.9 24.9 16.3 59 5.3 SSW 11 17 6 9 1004.4 1004.1 0.0
23/06:30am 23.4 23.1 16.4 64 4.3 SW 13 19 7 10 1004.5 1004.2 0.0
23/06:00am 21.9 21.2 15.3 66 4.0 SW 13 15 7 8 1004.7 1004.4 0.0
23/05:30am 21.9 21.4 15.0 65 4.1 SW 11 15 6 8 1004.6 1004.3 0.0
23/05:00am 21.7 22.0 14.6 64 4.2 W 6 15 3 8 1004.1 1003.8 0.0
23/04:30am 20.9 20.8 15.0 69 3.5 WSW 9 15 5 8 1003.9 1003.6 0.0
23/04:00am 22.1 21.5 13.5 58 5.0 W 9 15 5 8 1003.5 1003.2 0.0
23/03:30am 23.1 22.3 14.1 57 5.3 NW 11 15 6 8 1003.2 1002.8 0.0
23/03:00am 24.1 21.8 7.3 34 8.9 NNW 9 13 5 7 1002.9 1002.5 0.0
23/02:30am 23.3 23.1 12.9 52 6.0 NW 6 9 3 5 1002.7 1002.3 0.0
23/02:00am 24.1 23.8 13.3 51 6.3 NE 7 15 4 8 1002.6 1002.2 0.0
23/01:30am 28.0 23.9 6.2 25 11.5 NE 17 26 9 14 1002.3 1001.9 0.0
23/01:00am 27.2 23.4 7.6 29 10.6 ENE 17 26 9 14 1002.6 1002.2 0.0
23/12:30am 25.4 22.9 9.7 37 8.7 NE 13 19 7 10 1003.0 1002.6 0.0
23/12:00am 23.4 23.1 13.3 53 5.9 ESE 7 9 4 5 1003.6 1003.3 0.0
 
Date/Time
WST
Temp
°C
App
Temp
°C
Dew
Point
°C
Rel
Hum
%
Delta-T
°C
Wind Press
QNH
hPa
Press
MSL
hPa
Rain since
9am
mm
Dir  Spd
km/h
Gust
km/h
Spd
kts
Gust
kts
22/11:30pm 26.5 23.4 8.9 33 9.6 NE 15 22 8 12 1003.8 1003.5 0.0
22/11:00pm 23.3 22.9 12.9 52 6.0 E 7 15 4 8 1003.3 1002.9 0.0
22/10:30pm 23.1 23.4 12.1 50 6.3 SSW 2 13 1 7 1004.4 1004.1 0.0
22/10:00pm 24.3 23.8 11.9 45 7.1 ENE 6 9 3 5 1004.6 1004.3 0.0
22/09:30pm 25.8 23.8 6.9 30 10.0 ENE 7 9 4 5 1004.5 1004.2 0.0
22/09:00pm 26.7 23.7 7.7 30 10.2 E 13 19 7 10 1004.2 1003.9 0.0
22/08:30pm 28.5 24.5 4.7 22 12.3 ENE 15 20 8 11 1004.2 1003.9 0.0
22/08:00pm 29.6 25.6 5.0 21 12.9 NE 15 26 8 14 1004.4 1004.1 0.0
22/07:30pm 28.0 23.8 5.6 24 11.7 N 17 30 9 16 1004.7 1004.4 0.0
22/07:00pm 26.1 21.2 8.6 33 9.5 ENE 24 35 13 19 1003.3 1002.9 0.0
22/06:30pm 26.4 20.6 7.9 31 9.9 ENE 28 41 15 22 1003.2 1002.8 0.0
22/06:08pm 26.3 20.6 8.3 32 9.7 ENE 28 46 15 25 1003.1 1002.7 0.0
22/06:00pm 26.2 20.5 8.2 32 9.8 ENE 28 41 15 22 1003.1 1002.7 0.0
22/05:30pm 24.9 20.1 11.8 44 7.5 E 28 43 15 23 1003.2 1002.8 0.0
22/05:02pm 25.6 21.2 12.8 45 7.5 E 28 50 15 27 1003.2 1002.8 0.0
22/05:00pm 25.5 21.0 12.7 45 7.5 E 28 41 15 22 1003.1 1002.7 0.0
22/04:30pm 26.5 21.2 11.4 39 8.6 E 30 52 16 28 1002.9 1002.5 0.0
22/04:10pm 27.7 22.0 11.3 36 9.4 E 32 50 17 27 1003.0 1002.6 0.0
22/04:00pm 27.2 21.7 12.4 40 8.7 E 33 48 18 26 1003.1 1002.7 0.0
22/03:46pm 26.4 21.4 12.1 41 8.3 E 30 48 16 26 1003.3 1002.9 0.0
22/03:30pm 28.1 22.4 11.2 35 9.7 E 32 48 17 26 1003.4 1003.0 0.0
22/03:23pm 27.5 23.3 13.4 41 8.4 E 28 46 15 25 1003.6 1003.3 0.0
22/03:00pm 26.5 22.2 13.3 44 7.8 E 28 44 15 24 1003.9 1003.6 0.0
22/02:36pm 26.2 21.8 14.0 47 7.3 E 30 48 16 26 1004.3 1004.0 0.0
22/02:30pm 26.4 22.4 14.2 47 7.3 E 28 44 15 24 1004.4 1004.1 0.0
22/02:00pm 26.4 23.3 14.5 48 7.2 E 24 35 13 19 1004.7 1004.4 0.0
22/01:30pm 25.5 21.6 15.5 54 6.1 E 30 41 16 22 1005.2 1004.9 0.0
22/01:00pm 23.5 20.4 15.5 60 4.8 E 26 39 14 21 1005.9 1005.6 0.0
22/12:30pm 23.6 19.7 15.4 60 4.9 ESE 30 44 16 24 1006.2 1005.9 0.0
22/12:00pm 25.4 21.7 15.1 53 6.2 E 28 43 15 23 1006.6 1006.3 0.0
22/11:30am 26.0 22.5 14.5 49 6.9 ESE 26 37 14 20 1007.0 1006.7 0.0
22/11:00am 26.0 22.5 14.5 49 6.9 ESE 26 35 14 19 1007.3 1007.0 0.0
22/10:30am 25.1 21.8 14.9 53 6.1 ESE 26 37 14 20 1007.9 1007.5 0.0
22/10:00am 25.0 22.0 14.8 53 6.1 ESE 24 33 13 18 1008.4 1008.0 0.0
22/09:30am 25.6 24.0 15.0 52 6.4 ESE 17 26 9 14 1008.5 1008.1 0.0
22/09:00am 25.7 24.1 15.1 52 6.4 ESE 17 24 9 13 1008.8 1008.4 0.0
22/08:30am 24.5 23.2 15.7 58 5.3 ESE 17 24 9 13 1009.2 1008.8 0.0
22/08:00am 24.1 22.8 15.9 60 5.0 ESE 17 26 9 14 1009.5 1009.1 0.0
22/07:30am 23.2 22.0 16.0 64 4.4 ESE 17 26 9 14 1009.5 1009.1 0.0
22/07:00am 23.3 22.0 15.9 63 4.5 SE 17 22 9 12 1009.7 1009.3 0.0
22/06:30am 23.6 23.2 16.1 62 4.6 E 13 17 7 9 1009.8 1009.4 0.0
22/06:00am 22.7 21.4 13.7 56 5.3 ENE 13 19 7 10 1009.7 1009.3 0.0
22/05:30am 20.5 20.6 16.5 78 2.4 SE 11 17 6 9 1009.5 1009.1 0.0
22/05:00am 18.7 18.3 15.2 80 2.1 S 11 15 6 8 1009.4 1009.0 0.0
22/04:30am 18.9 19.0 15.4 80 2.1 E 9 15 5 8 1008.9 1008.5 0.0
22/04:00am 19.0 18.3 14.3 74 2.7 S 11 13 6 7 1009.3 1008.9 0.0
22/03:30am 19.8 16.6 6.9 43 6.5 ENE 13 19 7 10 1007.7 1007.4 0.0
22/03:00am 19.1 16.4 7.5 47 5.9 E 11 15 6 8 1007.7 1007.4 0.0
22/02:30am 19.8 17.5 9.1 50 5.7 ENE 11 15 6 8 1007.7 1007.4 0.0
22/02:00am 20.4 17.6 8.7 47 6.2 ENE 13 19 7 10 1008.0 1007.6 0.0
22/01:30am 20.1 17.7 10.2 53 5.4 NE 13 19 7 10 1008.3 1007.9 0.0
22/01:00am 20.0 18.0 11.5 58 4.7 E 13 17 7 9 1008.6 1008.2 0.0
22/12:30am 20.6 17.8 12.6 60 4.5 ENE 19 30 10 16 1008.3 1007.9 0.0
22/12:00am 19.6 17.5 14.8 74 2.8 E 19 28 10 15 1008.5 1008.1 0.0
 
Date/Time
WST
Temp
°C
App
Temp
°C
Dew
Point
°C
Rel
Hum
%
Delta-T
°C
Wind Press
QNH
hPa
Press
MSL
hPa
Rain since
9am
mm
Dir  Spd
km/h
Gust
km/h
Spd
kts
Gust
kts
21/11:30pm 19.3 18.4 15.8 80 2.1 E 15 26 8 14 1008.9 1008.5 0.0
21/11:00pm 19.7 18.1 15.1 75 2.7 E 17 26 9 14 1008.9 1008.5 0.0
21/10:30pm 19.6 18.1 15.3 76 2.5 E 17 28 9 15 1009.3 1008.9 0.0
21/10:00pm 19.7 18.5 16.2 80 2.1 E 17 22 9 12 1009.5 1009.1 0.0
21/09:30pm 19.9 18.7 16.2 79 2.2 E 17 30 9 16 1009.6 1009.2 0.0
21/09:00pm 21.2 18.7 13.4 61 4.5 E 19 30 10 16 1009.2 1008.8 0.0
21/08:30pm 20.9 18.3 13.8 64 4.1 E 20 32 11 17 1009.2 1008.8 0.0
21/08:00pm 20.7 19.6 16.3 76 2.7 E 17 26 9 14 1009.1 1008.7 0.0
21/07:30pm 23.0 19.2 9.8 43 7.2 E 20 32 11 17 1009.0 1008.6 0.0
21/07:00pm 21.9 19.1 12.5 55 5.4 E 19 26 10 14 1009.2 1008.8 0.0
21/06:30pm 21.4 19.2 15.0 67 3.8 E 20 32 11 17 1009.2 1008.8 0.0
21/06:00pm 22.0 19.3 13.6 59 4.9 E 20 30 11 16 1009.3 1008.9 0.0
21/05:30pm 22.3 19.4 15.2 64 4.2 E 24 35 13 19 1009.1 1008.7 0.0
21/05:00pm 25.3 21.4 13.2 47 7.1 E 26 39 14 21 1008.7 1008.3 0.0
21/04:30pm 26.8 23.1 10.1 35 9.3 E 20 32 11 17 1008.4 1008.0 0.0
21/04:00pm 23.9 20.7 14.3 55 5.7 E 24 33 13 18 1008.9 1008.5 0.0
21/03:30pm 24.5 21.5 14.9 55 5.8 ESE 24 39 13 21 1009.2 1008.8 0.0
21/03:00pm 25.4 21.1 14.5 51 6.5 E 30 39 16 21 1009.1 1008.7 0.0
21/02:30pm 25.9 22.6 14.1 48 7.0 E 24 33 13 18 1009.0 1008.6 0.0
21/02:00pm 25.9 23.2 14.7 50 6.7 ESE 22 32 12 17 1009.2 1008.8 0.0
21/01:30pm 25.7 22.8 15.1 52 6.4 E 24 37 13 20 1009.5 1009.1 0.0
21/01:00pm 24.1 21.7 15.3 58 5.3 E 22 32 12 17 1009.8 1009.4 0.0
21/12:30pm 23.1 21.3 15.4 62 4.6 E 19 28 10 15 1010.5 1010.1 0.0
21/12:00pm 24.9 23.5 14.4 52 6.3 E 15 26 8 14 1010.5 1010.1 0.0
21/11:30am 24.4 22.5 15.3 57 5.5 ESE 19 37 10 20 1011.0 1010.6 0.0
21/11:00am 24.6 23.8 14.1 52 6.2 ESE 11 17 6 9 1011.0 1010.6 0.0
21/10:30am 23.7 22.7 14.7 57 5.4 ESE 13 19 7 10 1011.6 1011.2 0.0
21/10:00am 23.5 22.1 14.5 57 5.3 ESE 15 24 8 13 1012.0 1011.6 0.0
21/09:30am 23.1 21.4 14.7 59 5.0 ESE 17 24 9 13 1012.2 1011.8 0.0
21/09:00am 22.9 21.1 15.5 63 4.5 ESE 19 28 10 15 1012.5 1012.1 0.0
21/08:30am 23.1 22.0 15.4 62 4.6 SE 15 24 8 13 1012.8 1012.5 0.0
21/08:00am 22.1 21.2 15.9 68 3.7 ESE 15 22 8 12 1012.6 1012.2 0.0
21/07:30am 22.5 21.8 16.5 69 3.7 SE 15 20 8 11 1012.7 1012.3 0.0
21/07:00am 21.8 21.2 14.7 64 4.2 ENE 11 15 6 8 1012.3 1011.9 0.0
21/06:30am 22.9 20.5 7.1 36 8.2 ENE 9 15 5 8 1012.1 1011.7 0.0
21/06:00am 22.4 19.6 7.0 37 8.0 NE 11 17 6 9 1012.1 1011.7 0.0
21/05:30am 22.3 19.1 6.9 37 7.9 NE 13 19 7 10 1011.8 1011.4 0.0
21/05:00am 21.2 18.6 7.8 42 7.0 NE 11 17 6 9 1011.8 1011.4 0.0
21/04:30am 21.3 18.3 7.9 42 7.0 NE 13 19 7 10 1011.5 1011.1 0.0
21/04:00am 21.4 18.5 8.0 42 7.0 NE 13 19 7 10 1011.4 1011.0 0.0
21/03:30am 21.7 18.4 8.2 42 7.1 ENE 15 20 8 11 1011.6 1011.2 0.0
21/03:00am 21.4 17.6 9.0 45 6.6 NE 19 28 10 15 1011.3 1010.9 0.0
21/02:30am 21.1 17.8 9.7 48 6.1 ENE 17 28 9 15 1011.2 1010.8 0.0
21/02:00am 20.7 18.0 10.2 51 5.7 ENE 15 24 8 13 1011.3 1010.9 0.0
21/01:30am 20.5 17.4 10.3 52 5.5 ENE 17 26 9 14 1011.3 1010.9 0.0
21/01:00am 20.5 17.6 10.9 54 5.3 ENE 17 30 9 16 1011.5 1011.1 0.0
21/12:30am 20.6 17.6 11.8 57 4.9 ENE 19 30 10 16 1011.5 1011.1 0.0
21/12:00am 20.6 17.8 12.6 60 4.5 ENE 19 32 10 17 1011.8 1011.4 0.0
 
Date/Time
WST
Temp
°C
App
Temp
°C
Dew
Point
°C
Rel
Hum
%
Delta-T
°C
Wind Press
QNH
hPa
Press
MSL
hPa
Rain since
9am
mm
Dir  Spd
km/h
Gust
km/h
Spd
kts
Gust
kts
20/11:30pm 20.5 17.1 13.7 65 3.9 ENE 24 33 13 18 1012.1 1011.7 0.0
20/11:00pm 20.2 18.0 15.0 72 3.1 E 20 32 11 17 1012.6 1012.2 0.0
20/10:30pm 20.5 18.0 14.2 67 3.7 E 20 32 11 17 1012.9 1012.6 0.0

Other formats

Comma delimited format used in spreadsheet applications
http://www.bom.gov.au/fwo/IDW60801/IDW60801.94647.axf

JavaScript Object Notation format (JSON) in row-major order
http://www.bom.gov.au/fwo/IDW60801/IDW60801.94647.json

Data quality

Most of these data are generated automatically and are frequently updated. Quality checks on data are not normally performed. It is possible for incorrect values to appear. Refer to information at About Latest Weather Observations and please check the disclaimer before using these data.